Terminal Aerodrome Forecast
Issued by NWS Charleston, WV

Current Version | Previous Version | Text Only | Print | Product List | Glossary Off
Versions: 1 2 3 4 5 6 7 8 9 10 11 12 13 14 15 16 17 18 19 20 21 22 23 24 25 26 27

881
FTUS41 KRLX 061016 AAB
TAFEKN
TAF AMD
KEKN 061016Z 0610/0706 14010G18KT P6SM BKN100
     FM061200 13008KT P6SM OVC060
      TEMPO 0612/0614 4SM -FZRA
     FM061400 13011G18KT 4SM -RA OVC050
     FM062100 15007KT 3SM -RA OVC035
     FM070100 18004KT 6SM -RA OVC020
     FM070200 23004KT P6SM OVC015=

USA.gov is the U.S. government's official web portal to all federal, state and local government web resources and services.